TimeAKDT,TemperatureF,Dew PointF,Humidity,Sea Level PressureIn,VisibilityMPH,Wind Direction,Wind SpeedMPH,Gust SpeedMPH,PrecipitationIn,Events,Conditions,WindDirDegrees,DateUTC
12:53 AM,55.0,48.9,80,29.42,10.0,North,8.1,-,0.00,,Overcast,10,2013-09-08 08:53:00
1:53 AM,54.0,48.9,83,29.42,10.0,NNE,10.4,16.1,N/A,,Overcast,20,2013-09-08 09:53:00
2:53 AM,55.9,46.9,72,29.42,10.0,NW,11.5,23.0,N/A,,Overcast,320,2013-09-08 10:53:00
3:53 AM,55.9,46.9,72,29.43,10.0,NNW,10.4,-,N/A,,Overcast,330,2013-09-08 11:53:00
4:53 AM,55.0,46.9,74,29.46,10.0,NNE,4.6,-,N/A,,Overcast,20,2013-09-08 12:53:00
5:53 AM,55.9,46.9,72,29.47,10.0,NW,10.4,-,N/A,,Overcast,320,2013-09-08 13:53:00
6:53 AM,54.0,46.9,77,29.50,10.0,Calm,Calm,-,N/A,,Overcast,0,2013-09-08 14:53:00
7:53 AM,52.0,48.0,86,29.53,10.0,North,4.6,-,N/A,,Scattered Clouds,360,2013-09-08 15:53:00
8:53 AM,51.1,48.0,89,29.57,10.0,Calm,Calm,-,N/A,,Mostly Cloudy,0,2013-09-08 16:53:00
9:53 AM,55.9,50.0,80,29.59,10.0,North,3.5,-,N/A,,Scattered Clouds,360,2013-09-08 17:53:00
10:53 AM,57.9,48.9,72,29.62,10.0,Variable,3.5,-,N/A,,Mostly Cloudy,0,2013-09-08 18:53:00
11:53 AM,57.0,50.0,77,29.66,10.0,Calm,Calm,-,N/A,,Clear,0,2013-09-08 19:53:00
12:53 PM,57.0,48.0,72,29.68,10.0,SSW,5.8,-,N/A,,Clear,200,2013-09-08 20:53:00
1:53 PM,59.0,48.9,69,29.73,10.0,South,13.8,-,N/A,,Clear,190,2013-09-08 21:53:00
2:53 PM,57.0,48.9,74,29.76,10.0,South,12.7,18.4,N/A,,Overcast,190,2013-09-08 22:53:00
3:53 PM,57.0,48.0,72,29.80,10.0,South,8.1,17.3,N/A,,Overcast,190,2013-09-08 23:53:00
4:53 PM,55.9,46.9,72,29.82,10.0,South,17.3,-,N/A,,Overcast,190,2013-09-09 00:53:00
5:53 PM,55.0,46.9,74,29.85,10.0,South,8.1,18.4,N/A,,Mostly Cloudy,180,2013-09-09 01:53:00
6:53 PM,55.0,48.0,77,29.87,10.0,South,9.2,-,N/A,,Overcast,190,2013-09-09 02:53:00
7:53 PM,54.0,48.9,83,29.88,10.0,South,9.2,18.4,N/A,,Overcast,170,2013-09-09 03:53:00
8:53 PM,53.1,48.9,86,29.89,10.0,Variable,6.9,-,0.01,,Overcast,0,2013-09-09 04:53:00
9:53 PM,53.1,48.0,83,29.90,9.0,SSW,11.5,-,0.00,Rain,Light Rain,200,2013-09-09 05:53:00
10:53 PM,53.1,48.0,83,29.91,10.0,SSW,11.5,21.9,0.01,,Overcast,200,2013-09-09 06:53:00
11:53 PM,53.1,48.0,83,29.90,10.0,South,11.5,17.3,0.00,Rain,Light Rain,190,2013-09-09 07:53:00